createdAt,value
2023-05-13T00:02:26.379Z,145955.84
2023-05-13T00:04:53.395Z,145961.91
2023-05-13T00:07:20.408Z,145942.44
2023-05-13T00:09:47.386Z,145913.28
2023-05-13T00:12:14.456Z,145893.78
2023-05-13T00:14:41.469Z,145924.22
2023-05-13T00:17:08.469Z,145921.81
2023-05-13T00:19:35.519Z,145910.84
2023-05-13T00:22:02.595Z,145896.25
2023-05-13T00:24:29.606Z,145876.81
2023-05-13T00:26:56.632Z,145890.19
2023-05-13T00:29:23.737Z,145859.78
2023-05-13T00:31:51.761Z,145858.56
2023-05-13T00:34:19.357Z,145830.63
2023-05-13T00:36:46.414Z,145839.09
2023-05-13T00:39:13.600Z,145830.63
2023-05-13T00:41:40.841Z,145794.16
2023-05-13T00:44:07.847Z,145819.66
2023-05-13T00:46:34.979Z,145758.88
2023-05-13T00:49:04.287Z,145811.13
2023-05-13T00:51:32.627Z,145777.13
2023-05-13T00:53:59.906Z,145800.22
2023-05-13T00:56:27.147Z,145801.41
2023-05-13T00:58:54.210Z,145789.28
2023-05-13T01:01:34.838Z,145710.25
2023-05-13T01:04:20.594Z,145757.69
2023-05-13T01:07:06.252Z,145750.38
2023-05-13T01:09:55.181Z,145738.19
2023-05-13T01:12:30.919Z,145685.91
2023-05-13T01:15:10.353Z,145730.94
2023-05-13T01:17:41.752Z,145685.91
2023-05-13T01:20:10.035Z,145713.91
2023-05-13T01:22:38.503Z,145696.84
2023-05-13T01:25:06.650Z,145678.59
2023-05-13T01:27:34.138Z,145667.69
2023-05-13T01:30:03.487Z,145609.38
2023-05-13T01:32:34.197Z,145667.69
2023-05-13T01:35:02.418Z,145647.03
2023-05-13T01:37:30.830Z,145575.38
2023-05-13T01:39:58.191Z,145622.72
2023-05-13T01:42:25.519Z,145585.09
2023-05-13T01:44:53.664Z,145631.25
2023-05-13T01:47:21.570Z,145623.94
2023-05-13T01:49:48.713Z,145631.25
2023-05-13T01:52:15.827Z,145631.25
2023-05-13T01:54:42.840Z,145619.06
2023-05-13T01:57:13.460Z,145568.06
2023-05-13T01:59:40.641Z,145592.34
2023-05-13T02:02:07.786Z,145565.66
2023-05-13T02:04:34.980Z,145580.22
2023-05-13T02:07:02.035Z,145575.38
2023-05-13T02:09:31.159Z,145570.50
2023-05-13T02:11:58.721Z,145537.69
2023-05-13T02:14:26.171Z,145548.66
2023-05-13T02:16:53.436Z,145538.94
2023-05-13T02:19:21.782Z,145498.84
2023-05-13T02:21:48.940Z,145514.59
2023-05-13T02:24:16.952Z,145461.22
2023-05-13T02:26:44.993Z,145485.47
2023-05-13T02:29:12.041Z,145412.63
2023-05-13T02:31:39.361Z,145451.44
2023-05-13T02:34:06.466Z,145475.78
2023-05-13T02:36:33.495Z,145449.03
2023-05-13T02:39:00.985Z,145432.03
2023-05-13T02:41:28.715Z,145451.44
2023-05-13T02:43:55.856Z,145424.78
2023-05-13T02:46:23.385Z,145466.06
2023-05-13T02:48:50.548Z,145449.03
2023-05-13T02:51:17.636Z,145458.75
2023-05-13T02:53:44.753Z,145456.34
2023-05-13T02:56:12.027Z,145451.44
2023-05-13T02:58:39.021Z,145446.59
2023-05-13T03:01:06.249Z,145432.03
2023-05-13T03:03:33.466Z,145438.13
2023-05-13T03:06:00.793Z,145400.47
2023-05-13T03:08:27.798Z,145421.13
2023-05-13T03:10:54.914Z,145432.03
2023-05-13T03:13:21.958Z,145351.94
2023-05-13T03:15:48.982Z,145425.97
2023-05-13T03:18:16.054Z,145434.47
2023-05-13T03:20:43.318Z,145423.53
2023-05-13T03:23:10.450Z,145412.63
2023-05-13T03:25:37.738Z,145401.72
2023-05-13T03:28:04.896Z,145410.16
2023-05-13T03:30:36.625Z,145429.63
2023-05-13T03:33:07.717Z,145376.19
2023-05-13T03:35:34.896Z,145410.16
2023-05-13T03:38:02.366Z,145424.78
2023-05-13T03:40:30.526Z,145388.34
2023-05-13T03:42:57.662Z,145417.47
2023-05-13T03:45:24.988Z,145415.03
2023-05-13T03:47:56.276Z,145433.25
2023-05-13T03:50:24.949Z,145434.47
2023-05-13T03:52:52.841Z,145424.78
2023-05-13T03:55:21.425Z,145439.34
2023-05-13T03:57:49.483Z,145467.25
2023-05-13T04:00:18.945Z,145472.13
2023-05-13T04:02:48.385Z,145433.25
2023-05-13T04:05:15.774Z,145475.78
2023-05-13T04:07:42.849Z,145456.34
2023-05-13T04:10:12.337Z,145449.03
2023-05-13T04:12:40.905Z,145439.34
2023-05-13T04:15:08.456Z,145470.91
2023-05-13T04:17:35.618Z,145455.09
2023-05-13T04:20:02.944Z,145473.31
2023-05-13T04:22:30.594Z,145463.63
2023-05-13T04:24:57.642Z,145489.13
2023-05-13T04:27:24.640Z,145491.53
2023-05-13T04:29:56.253Z,145485.47
2023-05-13T04:32:23.767Z,145489.13
2023-05-13T04:34:55.026Z,145472.13
2023-05-13T04:37:23.912Z,145501.25
2023-05-13T04:39:53.739Z,145502.50
2023-05-13T04:42:23.029Z,145514.59
2023-05-13T04:44:50.044Z,145538.94
2023-05-13T04:47:19.079Z,145555.91
2023-05-13T04:49:46.132Z,145536.47
2023-05-13T04:52:13.768Z,145572.91
2023-05-13T04:54:40.918Z,145571.72
2023-05-13T04:57:08.556Z,145622.72
2023-05-13T04:59:36.344Z,145645.81
2023-05-13T05:02:03.738Z,145668.91
2023-05-13T05:04:30.912Z,145661.63
2023-05-13T05:06:58.367Z,145650.66
2023-05-13T05:09:25.426Z,145715.13
2023-05-13T05:11:53.618Z,145754.03
2023-05-13T05:14:23.474Z,145789.28
2023-05-13T05:16:51.190Z,145845.19
2023-05-13T05:19:23.871Z,145860.97
2023-05-13T05:21:52.065Z,145852.47
2023-05-13T05:24:19.480Z,145918.16
2023-05-13T05:26:47.839Z,145968.00
2023-05-13T05:29:15.184Z,145957.03
2023-05-13T05:31:44.162Z,146008.16
2023-05-13T05:34:11.930Z,145978.94
2023-05-13T05:36:38.983Z,146059.22
2023-05-13T05:39:06.569Z,146081.19
2023-05-13T05:41:36.332Z,146120.09
2023-05-13T05:44:03.481Z,146124.97
2023-05-13T05:46:31.498Z,146127.41
2023-05-13T05:48:59.295Z,146088.47
2023-05-13T05:51:26.348Z,146098.19
2023-05-13T05:53:53.378Z,146022.75
2023-05-13T05:56:21.209Z,146042.19
2023-05-13T05:58:48.384Z,146026.41
2023-05-13T06:01:16.817Z,146030.00
2023-05-13T06:03:45.711Z,146090.91
2023-05-13T06:06:12.955Z,146117.69
2023-05-13T06:08:40.244Z,146142.00
2023-05-13T06:11:08.242Z,146263.72
2023-05-13T06:13:35.451Z,146303.84
2023-05-13T06:16:02.563Z,146364.75
2023-05-13T06:18:30.094Z,146373.28
2023-05-13T06:20:57.260Z,146422.00
2023-05-13T06:23:24.275Z,146428.13
2023-05-13T06:25:52.073Z,146486.56
2023-05-13T06:28:19.170Z,146514.56
2023-05-13T06:30:46.291Z,146580.38
2023-05-13T06:33:13.538Z,146641.28
2023-05-13T06:35:40.633Z,146582.78
2023-05-13T06:38:10.066Z,146599.84
2023-05-13T06:40:37.312Z,146623.00
2023-05-13T06:43:05.235Z,146700.97
2023-05-13T06:45:37.505Z,146713.22
2023-05-13T06:48:04.919Z,146697.31
2023-05-13T06:50:31.976Z,146731.50
2023-05-13T06:52:59.137Z,146760.75
2023-05-13T06:55:26.241Z,146814.41
2023-05-13T06:57:53.257Z,146835.13
2023-05-13T07:00:20.893Z,146844.88
2023-05-13T07:02:48.135Z,146816.84
2023-05-13T07:05:15.388Z,146859.50
2023-05-13T07:07:43.296Z,146868.03
2023-05-13T07:10:10.848Z,146780.28
2023-05-13T07:12:37.954Z,146916.78
2023-05-13T07:15:05.911Z,146941.22
2023-05-13T07:17:33.002Z,146987.59
2023-05-13T07:20:00.161Z,147004.69
2023-05-13T07:22:27.839Z,147007.09
2023-05-13T07:24:55.149Z,146977.78
2023-05-13T07:27:22.253Z,146932.66
2023-05-13T07:29:49.318Z,146982.69
2023-05-13T07:32:16.396Z,147016.84
2023-05-13T07:34:43.873Z,146921.72
2023-05-13T07:37:11.130Z,147025.41
2023-05-13T07:40:35.878Z,147066.88
2023-05-13T07:43:02.953Z,147069.31
2023-05-13T07:45:29.974Z,147191.31
2023-05-13T07:47:56.997Z,147160.84
2023-05-13T07:50:24.261Z,147302.47
2023-05-13T07:52:51.873Z,147326.84
2023-05-13T07:55:19.121Z,147395.22
2023-05-13T07:58:11.472Z,147453.84
2023-05-13T08:00:38.740Z,147418.44
2023-05-13T08:03:06.017Z,147455.06
2023-05-13T08:05:33.031Z,147419.63
2023-05-13T08:08:00.312Z,147424.50
2023-05-13T08:10:27.458Z,147488.03
2023-05-13T08:12:57.566Z,147395.22
2023-05-13T08:15:25.860Z,147470.91
2023-05-13T08:17:54.050Z,147423.31
2023-05-13T08:20:23.019Z,147480.72
2023-05-13T08:22:50.352Z,147503.97
2023-05-13T08:25:17.378Z,147513.75
2023-05-13T08:27:44.369Z,147534.47
2023-05-13T08:30:11.761Z,147565.03
2023-05-13T08:32:38.759Z,147622.47
2023-05-13T08:35:06.334Z,147632.22
2023-05-13T08:37:33.376Z,147664.00
2023-05-13T08:40:02.381Z,147613.91
2023-05-13T08:42:33.284Z,147630.97
2023-05-13T08:45:07.528Z,147742.25
2023-05-13T08:47:58.330Z,147774.03
2023-05-13T08:50:25.847Z,147835.13
2023-05-13T08:52:53.967Z,147888.94
2023-05-13T08:55:22.391Z,147920.72
2023-05-13T08:57:50.441Z,147914.56
2023-05-13T09:00:19.371Z,147974.53
2023-05-13T09:02:48.828Z,147962.34
2023-05-13T09:05:16.990Z,147944.00
2023-05-13T09:07:44.257Z,148047.91
2023-05-13T09:10:11.421Z,148077.28
2023-05-13T09:12:51.814Z,148099.31
2023-05-13T09:15:20.148Z,148072.41
2023-05-13T09:17:50.668Z,148073.63
2023-05-13T09:20:19.503Z,148111.53
2023-05-13T09:22:48.935Z,148181.28
2023-05-13T09:25:18.765Z,148167.81
2023-05-13T09:27:48.015Z,148167.81
2023-05-13T09:30:15.356Z,148158.03
2023-05-13T09:32:43.020Z,148144.53
2023-05-13T09:35:17.712Z,148113.97
2023-05-13T09:37:46.462Z,148028.34
2023-05-13T09:40:16.715Z,147977.00
2023-05-13T09:42:45.624Z,147957.44
2023-05-13T09:45:14.332Z,147924.34
2023-05-13T09:47:41.969Z,147864.44
2023-05-13T09:50:11.506Z,147887.69
2023-05-13T09:52:38.863Z,147877.91
2023-05-13T09:55:09.237Z,147940.31
2023-05-13T09:57:37.871Z,147923.16
2023-05-13T10:00:06.460Z,147952.56
2023-05-13T10:02:40.168Z,147885.25
2023-05-13T10:05:08.997Z,147901.13
2023-05-13T10:07:37.893Z,147936.63
2023-05-13T10:10:08.537Z,148003.91
2023-05-13T10:12:38.054Z,148030.81
2023-05-13T10:15:05.816Z,148080.97
2023-05-13T10:17:33.361Z,148040.59
2023-05-13T10:20:01.704Z,148177.66
2023-05-13T10:22:34.659Z,148204.53
2023-05-13T10:25:05.002Z,148214.34
2023-05-13T10:27:33.529Z,148241.22
2023-05-13T10:30:03.707Z,148264.47
2023-05-13T10:32:31.601Z,148265.75
2023-05-13T10:35:13.560Z,148235.13
2023-05-13T10:38:07.496Z,148320.81
2023-05-13T10:40:40.557Z,148329.38
2023-05-13T10:43:26.014Z,148308.56
2023-05-13T10:46:05.534Z,148207.00
2023-05-13T10:48:49.404Z,148197.22
2023-05-13T10:51:22.569Z,148101.75
2023-05-13T10:53:55.600Z,148001.44
2023-05-13T10:56:24.538Z,148032.03
2023-05-13T10:59:03.370Z,148109.09
2023-05-13T11:01:34.851Z,148162.94
2023-05-13T11:04:05.635Z,148153.16
2023-05-13T11:06:37.480Z,148285.31
2023-05-13T11:09:11.760Z,148360.00
2023-05-13T11:11:39.337Z,148246.19
2023-05-13T11:14:26.025Z,148160.50
2023-05-13T11:17:00.250Z,148142.13
2023-05-13T11:19:38.298Z,148033.25
2023-05-13T11:22:13.662Z,147979.41
2023-05-13T11:24:41.594Z,147991.66
2023-05-13T11:27:19.828Z,147959.88
2023-05-13T11:29:54.985Z,148001.44
2023-05-13T11:32:53.309Z,147988.00
2023-05-13T11:35:28.901Z,147920.72
2023-05-13T11:37:59.991Z,147822.88
2023-05-13T11:40:32.835Z,147516.16
2023-05-13T11:43:01.198Z,147462.41
2023-05-13T11:45:29.775Z,147350.03
2023-05-13T11:47:57.808Z,147290.22
2023-05-13T11:50:35.377Z,147248.75
2023-05-13T11:53:02.676Z,147264.59
2023-05-13T11:55:32.006Z,147292.69
2023-05-13T11:57:59.627Z,147433.06
2023-05-13T12:00:27.419Z,147385.47
2023-05-13T12:02:55.042Z,147387.88
2023-05-13T12:05:22.916Z,147392.75
2023-05-13T12:07:50.631Z,147356.13
2023-05-13T12:10:17.813Z,147265.84
2023-05-13T12:12:46.114Z,147221.84
2023-05-13T12:15:18.653Z,147165.72
2023-05-13T12:17:46.708Z,147011.97
2023-05-13T12:20:18.168Z,147031.47
2023-05-13T12:22:45.125Z,146875.34
2023-05-13T12:25:40.374Z,146780.28
2023-05-13T12:28:20.625Z,146763.19
2023-05-13T12:30:53.890Z,146712.03
2023-05-13T12:33:23.233Z,146807.06
2023-05-13T12:35:52.868Z,146918.03
2023-05-13T12:38:22.122Z,146985.09
2023-05-13T12:40:50.221Z,147013.19
2023-05-13T12:43:19.454Z,147053.44
2023-05-13T12:45:48.175Z,147163.25
2023-05-13T12:48:15.863Z,147202.31
2023-05-13T12:50:42.932Z,147270.72
2023-05-13T12:53:10.000Z,147320.78
2023-05-13T12:55:39.953Z,147324.41
2023-05-13T12:58:10.788Z,147347.63
2023-05-13T13:00:38.096Z,147325.66
2023-05-13T13:03:05.876Z,147451.38
2023-05-13T13:05:33.382Z,147430.66
2023-05-13T13:08:05.210Z,147517.41
2023-05-13T13:10:32.488Z,147448.97
2023-05-13T13:12:59.505Z,147470.91
2023-05-13T13:15:26.697Z,147616.31
2023-05-13T13:17:53.810Z,147678.66
2023-05-13T13:20:20.934Z,147842.47
2023-05-13T13:22:48.034Z,147810.69
2023-05-13T13:25:15.103Z,147942.75
2023-05-13T13:27:42.079Z,147963.53
2023-05-13T13:30:09.446Z,147978.22
2023-05-13T13:32:36.528Z,148033.25
2023-05-13T13:35:05.460Z,148021.00
2023-05-13T13:37:32.538Z,148011.22
2023-05-13T13:39:59.634Z,148111.53
2023-05-13T13:42:36.817Z,148121.31
2023-05-13T13:45:11.426Z,148007.59
2023-05-13T13:47:38.596Z,147820.47
2023-05-13T13:50:06.408Z,147847.38
2023-05-13T13:52:33.523Z,147858.34
2023-05-13T13:55:00.692Z,147859.56
2023-05-13T13:57:27.851Z,147771.56
2023-05-13T13:59:54.865Z,147802.13
2023-05-13T14:02:21.994Z,147813.13
2023-05-13T14:04:49.023Z,147908.47
2023-05-13T14:07:16.198Z,147988.00
2023-05-13T14:09:43.210Z,148043.03
2023-05-13T14:12:10.263Z,148113.97
2023-05-13T14:14:37.239Z,148074.81
2023-05-13T14:17:04.440Z,148021.00
2023-05-13T14:19:31.442Z,148055.28
2023-05-13T14:21:58.495Z,148078.50
2023-05-13T14:24:27.021Z,148033.25
2023-05-13T14:26:54.190Z,147977.00
2023-05-13T14:29:21.252Z,148077.28
2023-05-13T14:31:48.613Z,148047.91
2023-05-13T14:34:16.471Z,148043.03
2023-05-13T14:36:43.554Z,148180.06
2023-05-13T14:39:10.773Z,148309.78
2023-05-13T14:41:37.952Z,148486.13
2023-05-13T14:44:04.939Z,148493.44
2023-05-13T14:46:35.391Z,148358.78
2023-05-13T14:49:02.497Z,148363.69
2023-05-13T14:51:29.694Z,148204.53
2023-05-13T14:53:56.844Z,148265.75
2023-05-13T14:56:25.041Z,148241.22
2023-05-13T14:58:53.160Z,148169.09
2023-05-13T15:01:20.262Z,148213.09
2023-05-13T15:03:47.342Z,148374.69
2023-05-13T15:06:14.541Z,148476.31
2023-05-13T15:08:41.544Z,148326.91
2023-05-13T15:11:08.590Z,148339.16
2023-05-13T15:13:36.861Z,148585.31
2023-05-13T15:16:04.364Z,148434.69
2023-05-13T15:18:31.642Z,148349.00
2023-05-13T15:20:58.724Z,148584.09
2023-05-13T15:23:25.797Z,148853.69
2023-05-13T15:25:52.849Z,149016.72
2023-05-13T15:28:19.848Z,149237.47
2023-05-13T15:30:46.862Z,149108.72
2023-05-13T15:33:13.910Z,149155.31
2023-05-13T15:35:42.449Z,149351.63
2023-05-13T15:38:10.681Z,149405.59
2023-05-13T15:40:38.477Z,149257.13
2023-05-13T15:43:05.480Z,149347.91
2023-05-13T15:45:32.508Z,149395.81
2023-05-13T15:47:59.547Z,149074.34
2023-05-13T15:50:27.372Z,149133.25
2023-05-13T15:52:54.653Z,149027.78
2023-05-13T15:55:22.134Z,149032.69
2023-05-13T15:57:50.463Z,149312.34
2023-05-13T16:00:18.528Z,149390.91
2023-05-13T16:02:45.600Z,149587.31
2023-05-13T16:05:15.200Z,149638.84
2023-05-13T16:07:42.502Z,149703.91
2023-05-13T16:10:09.924Z,149620.44
2023-05-13T16:12:37.482Z,149475.59
2023-05-13T16:15:04.802Z,148934.59
2023-05-13T16:17:31.898Z,148662.47
2023-05-13T16:19:59.699Z,148521.59
2023-05-13T16:22:28.934Z,148492.22
2023-05-13T16:24:59.534Z,148427.34
2023-05-13T16:27:28.168Z,148753.19
2023-05-13T16:29:56.235Z,149185.97
2023-05-13T16:32:23.737Z,149208.06
2023-05-13T16:34:52.045Z,149130.78
2023-05-13T16:37:19.130Z,149155.31
2023-05-13T16:39:46.719Z,149111.19
2023-05-13T16:42:13.819Z,148959.13
2023-05-13T16:44:40.989Z,148437.13
2023-05-13T16:47:11.018Z,148199.63
2023-05-13T16:49:38.265Z,148167.81
2023-05-13T16:52:06.165Z,148017.38
2023-05-13T16:54:34.133Z,147874.22
2023-05-13T16:57:01.260Z,147844.91
2023-05-13T16:59:28.589Z,147754.44
2023-05-13T17:01:55.758Z,147758.13
2023-05-13T17:04:22.898Z,147703.06
2023-05-13T17:06:49.956Z,147652.97
2023-05-13T17:09:17.124Z,147649.31
2023-05-13T17:11:44.218Z,147649.31
2023-05-13T17:14:11.336Z,147656.66
2023-05-13T17:16:38.654Z,147613.91
2023-05-13T17:19:05.833Z,147600.47
2023-05-13T17:21:32.873Z,147649.31
2023-05-13T17:24:00.168Z,147964.75
2023-05-13T17:26:27.745Z,148307.34
2023-05-13T17:28:54.843Z,148620.84
2023-05-13T17:31:22.523Z,148378.34
2023-05-13T17:33:49.725Z,148183.75
2023-05-13T17:36:16.775Z,147923.16
2023-05-13T17:38:44.120Z,147830.25
2023-05-13T17:41:11.276Z,147868.13
2023-05-13T17:43:38.341Z,147940.31
2023-05-13T17:46:05.463Z,147830.25
2023-05-13T17:48:33.126Z,147744.66
2023-05-13T17:51:00.377Z,147749.56
2023-05-13T17:53:27.520Z,147681.06
2023-05-13T17:55:54.609Z,147730.00
2023-05-13T17:58:21.737Z,147734.91
2023-05-13T18:00:48.965Z,147720.25
2023-05-13T18:03:16.300Z,147705.53
2023-05-13T18:05:43.425Z,147659.13
2023-05-13T18:08:10.479Z,147699.41
2023-05-13T18:10:37.500Z,147700.66
2023-05-13T18:13:04.568Z,147698.19
2023-05-13T18:15:31.978Z,147610.22
2023-05-13T18:17:59.131Z,147582.16
2023-05-13T18:20:26.441Z,147650.56
2023-05-13T18:22:53.490Z,147527.16
2023-05-13T18:25:20.576Z,147551.59
2023-05-13T18:27:50.013Z,147539.34
2023-05-13T18:30:18.218Z,147480.72
2023-05-13T18:32:45.653Z,147425.78
2023-05-13T18:35:12.852Z,147376.91
2023-05-13T18:37:39.932Z,147357.38
2023-05-13T18:40:07.643Z,147326.84
2023-05-13T18:42:34.642Z,147336.63
2023-05-13T18:45:01.778Z,147312.22
2023-05-13T18:47:28.853Z,147285.34
2023-05-13T18:49:56.014Z,147165.72
2023-05-13T18:52:23.074Z,147202.31
2023-05-13T18:54:50.083Z,147194.97
2023-05-13T18:57:17.814Z,147124.22
2023-05-13T18:59:44.850Z,147097.38
2023-05-13T19:02:11.933Z,147037.59
2023-05-13T19:04:39.021Z,146994.94
2023-05-13T19:07:06.108Z,146963.16
2023-05-13T19:09:35.612Z,146941.22
2023-05-13T19:12:02.759Z,146892.41
2023-05-13T19:14:29.803Z,146882.66
2023-05-13T19:16:57.013Z,146887.53
2023-05-13T19:19:24.400Z,146899.75
2023-05-13T19:21:51.418Z,146875.34
2023-05-13T19:24:18.446Z,146871.72
2023-05-13T19:26:45.564Z,146831.47
2023-05-13T19:29:12.783Z,146802.19
2023-05-13T19:31:40.270Z,146782.69
2023-05-13T19:34:07.583Z,146730.31
2023-05-13T19:36:34.670Z,146731.50
2023-05-13T19:39:01.870Z,146714.44
2023-05-13T19:41:28.976Z,146709.50
2023-05-13T19:43:56.504Z,146675.41
2023-05-13T19:46:23.607Z,146643.72
2023-05-13T19:48:50.666Z,146619.34
2023-05-13T19:51:18.100Z,146609.59
2023-05-13T19:53:45.180Z,146601.06
2023-05-13T19:56:12.219Z,146580.38
2023-05-13T19:58:39.209Z,146565.75
2023-05-13T20:01:06.254Z,146482.94
2023-05-13T20:03:33.377Z,146524.34
2023-05-13T20:06:01.591Z,146515.81
2023-05-13T20:08:31.415Z,146457.34
2023-05-13T20:10:58.738Z,146441.47
2023-05-13T20:13:26.046Z,146448.81
2023-05-13T20:15:53.151Z,146415.94
2023-05-13T20:18:20.211Z,146385.44
2023-05-13T20:20:47.924Z,146357.44
2023-05-13T20:23:14.975Z,146344.03
2023-05-13T20:25:42.099Z,146312.38
2023-05-13T20:28:09.096Z,146239.34
2023-05-13T20:30:36.313Z,146257.59
2023-05-13T20:33:03.901Z,146235.69
2023-05-13T20:35:30.926Z,146207.69
2023-05-13T20:37:58.490Z,146218.69
2023-05-13T20:40:25.602Z,146218.69
2023-05-13T20:42:52.713Z,146210.16
2023-05-13T20:45:19.791Z,146200.44
2023-05-13T20:47:46.827Z,146174.84
2023-05-13T20:50:14.006Z,146193.09
2023-05-13T20:52:41.407Z,146178.50
2023-05-13T20:55:09.009Z,146184.56
2023-05-13T20:57:36.058Z,146120.09
2023-05-13T21:00:03.388Z,146146.88
2023-05-13T21:02:30.815Z,146137.13
2023-05-13T21:04:57.948Z,146137.13
2023-05-13T21:07:25.113Z,146090.91
2023-05-13T21:09:52.253Z,146066.50
2023-05-13T21:12:19.258Z,146065.31
2023-05-13T21:14:46.286Z,146109.16
2023-05-13T21:17:13.263Z,146093.31
2023-05-13T21:19:40.488Z,146066.50
2023-05-13T21:22:07.499Z,146054.38
2023-05-13T21:24:34.525Z,146049.50
2023-05-13T21:27:01.518Z,146021.50
2023-05-13T21:29:30.086Z,145964.34
2023-05-13T21:31:57.242Z,145998.38
2023-05-13T21:34:24.623Z,145965.56
2023-05-13T21:36:52.161Z,145975.28
2023-05-13T21:39:19.168Z,145942.44
2023-05-13T21:41:47.350Z,145898.69
2023-05-13T21:44:14.381Z,145925.41
2023-05-13T21:46:41.426Z,145880.47
2023-05-13T21:49:08.555Z,145847.59
2023-05-13T21:51:35.706Z,145857.31
2023-05-13T21:54:02.770Z,145850.06
2023-05-13T21:56:29.751Z,145860.97
2023-05-13T21:58:56.815Z,145850.06
2023-05-13T22:01:23.999Z,145860.97
2023-05-13T22:03:51.069Z,145816.00
2023-05-13T22:06:18.274Z,145874.34
2023-05-13T22:08:45.640Z,145844.00
2023-05-13T22:11:12.682Z,145816.00
2023-05-13T22:13:39.737Z,145816.00
2023-05-13T22:16:06.935Z,145792.91
2023-05-13T22:18:34.293Z,145784.38
2023-05-13T22:21:01.446Z,145777.13
2023-05-13T22:23:28.452Z,145752.81
2023-05-13T22:25:55.547Z,145723.63
2023-05-13T22:28:22.708Z,145749.16
2023-05-13T22:30:52.627Z,145717.56
2023-05-13T22:33:19.701Z,145717.56
2023-05-13T22:35:47.151Z,145718.78
2023-05-13T22:38:14.199Z,145703.00
2023-05-13T22:40:41.341Z,145689.56
2023-05-13T22:43:08.363Z,145682.25
2023-05-13T22:45:36.876Z,145599.66
2023-05-13T22:48:04.016Z,145659.19
2023-05-13T22:50:31.097Z,145647.03
2023-05-13T22:52:58.100Z,145647.03
2023-05-13T22:55:25.248Z,145616.69
2023-05-13T22:57:52.281Z,145615.44
2023-05-13T23:00:19.927Z,145606.97
2023-05-13T23:02:46.955Z,145621.53
2023-05-13T23:05:14.051Z,145581.44
2023-05-13T23:07:41.135Z,145606.97
2023-05-13T23:10:08.544Z,145596.00
2023-05-13T23:12:35.520Z,145551.06
2023-05-13T23:15:02.837Z,145568.06
2023-05-13T23:17:30.019Z,145558.34
2023-05-13T23:19:57.163Z,145521.91
2023-05-13T23:22:24.127Z,145524.31
2023-05-13T23:24:51.139Z,145496.41
2023-05-13T23:27:18.116Z,145514.59
2023-05-13T23:29:45.186Z,145490.34
2023-05-13T23:32:12.316Z,145439.34
2023-05-13T23:34:39.360Z,145419.94
2023-05-13T23:37:06.338Z,145396.81
2023-05-13T23:39:33.344Z,145473.31
2023-05-13T23:42:00.418Z,145461.22
2023-05-13T23:44:27.455Z,145451.44
2023-05-13T23:46:54.504Z,145440.53
2023-05-13T23:49:21.511Z,145412.63
2023-05-13T23:51:48.871Z,145422.31
2023-05-13T23:54:16.540Z,145342.19
2023-05-13T23:56:43.616Z,145405.31
2023-05-13T23:59:10.774Z,145399.25
